sensor_id;sensor_type;location;lat;lon;timestamp;P1;durP1;ratioP1;P2;durP2;ratioP2
61358;SDS011;47228;46.762;23.598;2023-04-07T00:01:27;13.30;;;10.60;;
61358;SDS011;47228;46.762;23.598;2023-04-07T00:03:55;15.20;;;11.20;;
61358;SDS011;47228;46.762;23.598;2023-04-07T00:06:24;13.60;;;10.20;;
61358;SDS011;47228;46.762;23.598;2023-04-07T00:08:52;12.10;;;9.60;;
61358;SDS011;47228;46.762;23.598;2023-04-07T00:11:20;12.50;;;10.60;;
61358;SDS011;47228;46.762;23.598;2023-04-07T00:13:47;12.40;;;9.80;;
61358;SDS011;47228;46.762;23.598;2023-04-07T00:16:15;13.00;;;10.20;;
61358;SDS011;47228;46.762;23.598;2023-04-07T00:18:44;11.40;;;8.90;;
61358;SDS011;47228;46.762;23.598;2023-04-07T00:21:12;12.80;;;9.60;;
61358;SDS011;47228;46.762;23.598;2023-04-07T00:23:40;12.50;;;10.00;;
61358;SDS011;47228;46.762;23.598;2023-04-07T00:26:09;12.90;;;10.20;;
61358;SDS011;47228;46.762;23.598;2023-04-07T00:28:37;14.30;;;11.00;;
61358;SDS011;47228;46.762;23.598;2023-04-07T00:31:05;13.50;;;11.40;;
61358;SDS011;47228;46.762;23.598;2023-04-07T00:33:33;12.60;;;10.50;;
61358;SDS011;47228;46.762;23.598;2023-04-07T00:36:01;13.00;;;10.10;;
61358;SDS011;47228;46.762;23.598;2023-04-07T00:38:29;12.60;;;10.20;;
61358;SDS011;47228;46.762;23.598;2023-04-07T00:40:57;13.80;;;10.50;;
61358;SDS011;47228;46.762;23.598;2023-04-07T00:43:26;13.80;;;10.40;;
61358;SDS011;47228;46.762;23.598;2023-04-07T00:45:54;14.50;;;10.30;;
61358;SDS011;47228;46.762;23.598;2023-04-07T00:48:23;14.40;;;11.10;;
61358;SDS011;47228;46.762;23.598;2023-04-07T00:50:51;14.30;;;10.90;;
61358;SDS011;47228;46.762;23.598;2023-04-07T00:53:19;14.50;;;11.20;;
61358;SDS011;47228;46.762;23.598;2023-04-07T00:55:47;12.60;;;9.70;;
61358;SDS011;47228;46.762;23.598;2023-04-07T00:58:15;12.90;;;9.80;;
61358;SDS011;47228;46.762;23.598;2023-04-07T01:00:50;13.00;;;10.20;;
61358;SDS011;47228;46.762;23.598;2023-04-07T01:03:33;12.70;;;10.10;;
61358;SDS011;47228;46.762;23.598;2023-04-07T01:06:25;13.80;;;10.60;;
61358;SDS011;47228;46.762;23.598;2023-04-07T01:14:34;14.60;;;11.80;;
61358;SDS011;47228;46.762;23.598;2023-04-07T01:17:12;16.50;;;12.10;;
61358;SDS011;47228;46.762;23.598;2023-04-07T01:19:44;13.60;;;11.80;;
61358;SDS011;47228;46.762;23.598;2023-04-07T01:22:15;14.90;;;11.80;;
61358;SDS011;47228;46.762;23.598;2023-04-07T01:30:15;14.80;;;10.60;;
61358;SDS011;47228;46.762;23.598;2023-04-07T01:32:46;15.00;;;11.40;;
61358;SDS011;47228;46.762;23.598;2023-04-07T01:35:18;16.20;;;12.40;;
61358;SDS011;47228;46.762;23.598;2023-04-07T01:37:49;16.10;;;11.60;;
61358;SDS011;47228;46.762;23.598;2023-04-07T01:40:18;15.50;;;12.20;;
61358;SDS011;47228;46.762;23.598;2023-04-07T01:42:48;14.30;;;11.50;;
61358;SDS011;47228;46.762;23.598;2023-04-07T01:45:16;13.70;;;11.10;;
61358;SDS011;47228;46.762;23.598;2023-04-07T01:47:45;13.90;;;11.20;;
61358;SDS011;47228;46.762;23.598;2023-04-07T01:50:13;13.50;;;10.60;;
61358;SDS011;47228;46.762;23.598;2023-04-07T01:52:42;13.40;;;10.70;;
61358;SDS011;47228;46.762;23.598;2023-04-07T01:55:11;16.10;;;12.70;;
61358;SDS011;47228;46.762;23.598;2023-04-07T01:57:39;16.50;;;12.60;;
61358;SDS011;47228;46.762;23.598;2023-04-07T02:00:07;15.60;;;12.60;;
61358;SDS011;47228;46.762;23.598;2023-04-07T02:02:36;16.00;;;12.30;;
61358;SDS011;47228;46.762;23.598;2023-04-07T02:05:10;14.50;;;11.80;;
61358;SDS011;47228;46.762;23.598;2023-04-07T02:07:51;15.50;;;11.90;;
61358;SDS011;47228;46.762;23.598;2023-04-07T02:10:22;15.00;;;11.90;;
61358;SDS011;47228;46.762;23.598;2023-04-07T02:12:52;13.60;;;11.10;;
61358;SDS011;47228;46.762;23.598;2023-04-07T02:15:22;17.60;;;13.80;;
61358;SDS011;47228;46.762;23.598;2023-04-07T02:17:51;18.70;;;15.30;;
61358;SDS011;47228;46.762;23.598;2023-04-07T02:20:21;19.10;;;15.20;;
61358;SDS011;47228;46.762;23.598;2023-04-07T02:22:50;18.40;;;14.00;;
61358;SDS011;47228;46.762;23.598;2023-04-07T02:25:22;18.30;;;14.50;;
61358;SDS011;47228;46.762;23.598;2023-04-07T02:27:55;19.50;;;15.90;;
61358;SDS011;47228;46.762;23.598;2023-04-07T02:30:25;20.10;;;17.30;;
61358;SDS011;47228;46.762;23.598;2023-04-07T02:32:53;17.00;;;13.60;;
61358;SDS011;47228;46.762;23.598;2023-04-07T02:35:22;15.10;;;12.10;;
61358;SDS011;47228;46.762;23.598;2023-04-07T02:37:50;14.30;;;11.50;;
61358;SDS011;47228;46.762;23.598;2023-04-07T02:40:18;14.70;;;11.70;;
61358;SDS011;47228;46.762;23.598;2023-04-07T02:42:46;12.90;;;10.50;;
61358;SDS011;47228;46.762;23.598;2023-04-07T02:45:14;13.70;;;11.50;;
61358;SDS011;47228;46.762;23.598;2023-04-07T02:47:42;14.90;;;11.70;;
61358;SDS011;47228;46.762;23.598;2023-04-07T02:50:10;15.90;;;12.90;;
61358;SDS011;47228;46.762;23.598;2023-04-07T02:52:38;16.60;;;12.20;;
61358;SDS011;47228;46.762;23.598;2023-04-07T02:55:06;16.30;;;13.10;;
61358;SDS011;47228;46.762;23.598;2023-04-07T02:57:35;16.30;;;12.90;;
61358;SDS011;47228;46.762;23.598;2023-04-07T03:00:03;16.90;;;12.30;;
61358;SDS011;47228;46.762;23.598;2023-04-07T03:02:31;14.10;;;11.90;;
61358;SDS011;47228;46.762;23.598;2023-04-07T03:05:00;13.50;;;10.30;;
61358;SDS011;47228;46.762;23.598;2023-04-07T03:07:30;13.20;;;10.10;;
61358;SDS011;47228;46.762;23.598;2023-04-07T03:09:58;11.60;;;9.40;;
61358;SDS011;47228;46.762;23.598;2023-04-07T03:12:26;13.10;;;9.70;;
61358;SDS011;47228;46.762;23.598;2023-04-07T03:14:54;12.90;;;10.00;;
61358;SDS011;47228;46.762;23.598;2023-04-07T03:17:22;12.40;;;10.20;;
61358;SDS011;47228;46.762;23.598;2023-04-07T03:19:50;14.40;;;11.90;;
61358;SDS011;47228;46.762;23.598;2023-04-07T03:22:18;15.60;;;12.10;;
61358;SDS011;47228;46.762;23.598;2023-04-07T03:24:46;12.90;;;10.80;;
61358;SDS011;47228;46.762;23.598;2023-04-07T03:27:14;14.50;;;10.90;;
61358;SDS011;47228;46.762;23.598;2023-04-07T03:29:44;14.20;;;11.80;;
61358;SDS011;47228;46.762;23.598;2023-04-07T03:32:12;18.60;;;14.00;;
61358;SDS011;47228;46.762;23.598;2023-04-07T03:34:40;19.20;;;15.00;;
61358;SDS011;47228;46.762;23.598;2023-04-07T03:37:08;21.50;;;16.00;;
61358;SDS011;47228;46.762;23.598;2023-04-07T03:39:36;24.40;;;17.50;;
61358;SDS011;47228;46.762;23.598;2023-04-07T03:42:05;22.50;;;15.80;;
61358;SDS011;47228;46.762;23.598;2023-04-07T03:44:33;21.50;;;16.50;;
61358;SDS011;47228;46.762;23.598;2023-04-07T03:47:01;21.50;;;16.00;;
61358;SDS011;47228;46.762;23.598;2023-04-07T03:49:29;22.10;;;16.40;;
61358;SDS011;47228;46.762;23.598;2023-04-07T03:51:57;21.50;;;15.90;;
61358;SDS011;47228;46.762;23.598;2023-04-07T03:54:25;22.50;;;15.90;;
61358;SDS011;47228;46.762;23.598;2023-04-07T03:56:53;25.20;;;17.60;;
61358;SDS011;47228;46.762;23.598;2023-04-07T03:59:23;22.60;;;17.40;;
61358;SDS011;47228;46.762;23.598;2023-04-07T04:01:51;23.90;;;17.50;;
61358;SDS011;47228;46.762;23.598;2023-04-07T04:04:19;22.90;;;16.90;;
61358;SDS011;47228;46.762;23.598;2023-04-07T04:06:47;25.00;;;16.40;;
61358;SDS011;47228;46.762;23.598;2023-04-07T04:09:16;21.30;;;16.10;;
61358;SDS011;47228;46.762;23.598;2023-04-07T04:11:44;18.40;;;14.70;;
61358;SDS011;47228;46.762;23.598;2023-04-07T04:14:12;21.40;;;16.00;;
61358;SDS011;47228;46.762;23.598;2023-04-07T04:16:40;23.30;;;16.90;;
61358;SDS011;47228;46.762;23.598;2023-04-07T04:19:08;22.90;;;17.30;;
61358;SDS011;47228;46.762;23.598;2023-04-07T04:21:35;23.70;;;17.50;;
61358;SDS011;47228;46.762;23.598;2023-04-07T04:24:03;22.80;;;17.60;;
61358;SDS011;47228;46.762;23.598;2023-04-07T04:26:32;21.30;;;15.40;;
61358;SDS011;47228;46.762;23.598;2023-04-07T04:29:00;22.20;;;16.60;;
61358;SDS011;47228;46.762;23.598;2023-04-07T04:31:29;21.70;;;15.90;;
61358;SDS011;47228;46.762;23.598;2023-04-07T04:33:58;21.80;;;15.90;;
61358;SDS011;47228;46.762;23.598;2023-04-07T04:36:26;22.30;;;16.40;;
61358;SDS011;47228;46.762;23.598;2023-04-07T04:38:54;22.90;;;17.00;;
61358;SDS011;47228;46.762;23.598;2023-04-07T04:41:22;22.80;;;16.90;;
61358;SDS011;47228;46.762;23.598;2023-04-07T04:43:50;22.70;;;16.60;;
61358;SDS011;47228;46.762;23.598;2023-04-07T04:46:18;23.30;;;16.50;;
61358;SDS011;47228;46.762;23.598;2023-04-07T04:48:46;21.10;;;16.00;;
61358;SDS011;47228;46.762;23.598;2023-04-07T04:51:14;21.10;;;16.20;;
61358;SDS011;47228;46.762;23.598;2023-04-07T04:53:42;23.20;;;16.60;;
61358;SDS011;47228;46.762;23.598;2023-04-07T04:56:10;23.70;;;16.70;;
61358;SDS011;47228;46.762;23.598;2023-04-07T04:58:39;24.00;;;17.00;;
61358;SDS011;47228;46.762;23.598;2023-04-07T05:01:08;21.00;;;16.60;;
61358;SDS011;47228;46.762;23.598;2023-04-07T05:03:36;21.80;;;16.70;;
61358;SDS011;47228;46.762;23.598;2023-04-07T05:06:05;22.60;;;15.50;;
61358;SDS011;47228;46.762;23.598;2023-04-07T05:08:33;20.10;;;14.70;;
61358;SDS011;47228;46.762;23.598;2023-04-07T05:11:01;20.80;;;15.60;;
61358;SDS011;47228;46.762;23.598;2023-04-07T05:13:28;21.50;;;15.90;;
61358;SDS011;47228;46.762;23.598;2023-04-07T05:15:57;23.10;;;16.30;;
61358;SDS011;47228;46.762;23.598;2023-04-07T05:18:25;20.90;;;15.20;;
61358;SDS011;47228;46.762;23.598;2023-04-07T05:20:53;19.70;;;14.40;;
61358;SDS011;47228;46.762;23.598;2023-04-07T05:23:21;18.90;;;13.90;;
61358;SDS011;47228;46.762;23.598;2023-04-07T05:25:49;20.50;;;14.10;;
61358;SDS011;47228;46.762;23.598;2023-04-07T05:28:18;20.20;;;15.10;;
61358;SDS011;47228;46.762;23.598;2023-04-07T05:30:46;19.40;;;14.60;;
61358;SDS011;47228;46.762;23.598;2023-04-07T05:33:14;21.50;;;16.20;;
61358;SDS011;47228;46.762;23.598;2023-04-07T05:35:43;21.70;;;14.80;;
61358;SDS011;47228;46.762;23.598;2023-04-07T05:38:12;19.20;;;13.70;;
61358;SDS011;47228;46.762;23.598;2023-04-07T05:40:41;20.20;;;14.40;;
61358;SDS011;47228;46.762;23.598;2023-04-07T05:43:09;19.80;;;14.70;;
61358;SDS011;47228;46.762;23.598;2023-04-07T05:45:37;19.20;;;14.10;;
61358;SDS011;47228;46.762;23.598;2023-04-07T05:48:05;20.90;;;15.30;;
61358;SDS011;47228;46.762;23.598;2023-04-07T05:50:33;20.40;;;14.70;;
61358;SDS011;47228;46.762;23.598;2023-04-07T05:53:01;21.10;;;14.60;;
61358;SDS011;47228;46.762;23.598;2023-04-07T05:55:29;19.30;;;14.00;;
61358;SDS011;47228;46.762;23.598;2023-04-07T05:57:58;20.40;;;14.80;;
61358;SDS011;47228;46.762;23.598;2023-04-07T06:00:26;23.20;;;16.60;;
61358;SDS011;47228;46.762;23.598;2023-04-07T06:02:54;28.70;;;19.10;;
61358;SDS011;47228;46.762;23.598;2023-04-07T06:05:23;24.60;;;18.00;;
61358;SDS011;47228;46.762;23.598;2023-04-07T06:07:52;27.00;;;19.20;;
61358;SDS011;47228;46.762;23.598;2023-04-07T06:10:21;29.20;;;19.50;;
61358;SDS011;47228;46.762;23.598;2023-04-07T06:12:49;26.40;;;20.00;;
61358;SDS011;47228;46.762;23.598;2023-04-07T06:15:17;27.00;;;19.40;;
61358;SDS011;47228;46.762;23.598;2023-04-07T06:17:45;25.00;;;18.40;;
61358;SDS011;47228;46.762;23.598;2023-04-07T06:20:13;20.00;;;15.40;;
61358;SDS011;47228;46.762;23.598;2023-04-07T06:22:40;18.30;;;13.00;;
61358;SDS011;47228;46.762;23.598;2023-04-07T06:25:08;21.20;;;15.00;;
61358;SDS011;47228;46.762;23.598;2023-04-07T06:27:36;22.00;;;15.10;;
61358;SDS011;47228;46.762;23.598;2023-04-07T06:30:05;19.80;;;14.30;;
61358;SDS011;47228;46.762;23.598;2023-04-07T06:32:33;20.00;;;14.90;;
61358;SDS011;47228;46.762;23.598;2023-04-07T06:35:01;19.00;;;14.20;;
61358;SDS011;47228;46.762;23.598;2023-04-07T06:37:30;21.70;;;15.10;;
61358;SDS011;47228;46.762;23.598;2023-04-07T06:39:58;22.70;;;16.10;;
61358;SDS011;47228;46.762;23.598;2023-04-07T06:42:25;20.50;;;15.30;;
61358;SDS011;47228;46.762;23.598;2023-04-07T06:44:53;23.20;;;16.90;;
61358;SDS011;47228;46.762;23.598;2023-04-07T06:47:21;25.50;;;17.30;;
61358;SDS011;47228;46.762;23.598;2023-04-07T06:49:51;22.50;;;16.20;;
61358;SDS011;47228;46.762;23.598;2023-04-07T06:52:19;23.90;;;18.00;;
61358;SDS011;47228;46.762;23.598;2023-04-07T06:54:47;21.70;;;15.50;;
61358;SDS011;47228;46.762;23.598;2023-04-07T06:57:15;21.20;;;14.20;;
61358;SDS011;47228;46.762;23.598;2023-04-07T06:59:44;19.70;;;14.30;;
61358;SDS011;47228;46.762;23.598;2023-04-07T07:02:12;17.70;;;13.00;;
61358;SDS011;47228;46.762;23.598;2023-04-07T07:04:40;16.60;;;12.00;;
61358;SDS011;47228;46.762;23.598;2023-04-07T07:07:08;14.20;;;10.00;;
61358;SDS011;47228;46.762;23.598;2023-04-07T07:09:36;17.10;;;11.90;;
61358;SDS011;47228;46.762;23.598;2023-04-07T07:12:04;15.60;;;11.90;;
61358;SDS011;47228;46.762;23.598;2023-04-07T07:14:32;16.20;;;11.20;;
61358;SDS011;47228;46.762;23.598;2023-04-07T07:17:01;17.00;;;11.50;;
61358;SDS011;47228;46.762;23.598;2023-04-07T07:19:28;13.80;;;9.90;;
61358;SDS011;47228;46.762;23.598;2023-04-07T07:21:56;12.60;;;8.40;;
61358;SDS011;47228;46.762;23.598;2023-04-07T07:24:24;13.20;;;9.80;;
61358;SDS011;47228;46.762;23.598;2023-04-07T07:26:52;11.70;;;9.10;;
61358;SDS011;47228;46.762;23.598;2023-04-07T07:29:20;12.80;;;9.30;;
61358;SDS011;47228;46.762;23.598;2023-04-07T07:31:48;10.30;;;7.60;;
61358;SDS011;47228;46.762;23.598;2023-04-07T07:34:16;9.30;;;6.70;;
61358;SDS011;47228;46.762;23.598;2023-04-07T07:36:44;9.50;;;7.00;;
61358;SDS011;47228;46.762;23.598;2023-04-07T07:39:12;9.40;;;6.70;;
61358;SDS011;47228;46.762;23.598;2023-04-07T07:41:41;8.00;;;5.90;;
61358;SDS011;47228;46.762;23.598;2023-04-07T07:44:09;8.50;;;6.40;;
61358;SDS011;47228;46.762;23.598;2023-04-07T07:46:37;9.60;;;6.60;;
61358;SDS011;47228;46.762;23.598;2023-04-07T07:49:05;8.50;;;6.50;;
61358;SDS011;47228;46.762;23.598;2023-04-07T07:51:33;9.20;;;6.60;;
61358;SDS011;47228;46.762;23.598;2023-04-07T07:54:01;8.90;;;6.60;;
61358;SDS011;47228;46.762;23.598;2023-04-07T07:56:29;9.10;;;6.90;;
61358;SDS011;47228;46.762;23.598;2023-04-07T07:58:57;9.60;;;6.80;;
61358;SDS011;47228;46.762;23.598;2023-04-07T08:01:25;8.70;;;6.60;;
61358;SDS011;47228;46.762;23.598;2023-04-07T08:03:53;9.90;;;6.60;;
61358;SDS011;47228;46.762;23.598;2023-04-07T08:06:22;9.00;;;6.20;;
61358;SDS011;47228;46.762;23.598;2023-04-07T08:08:50;8.10;;;6.30;;
61358;SDS011;47228;46.762;23.598;2023-04-07T08:11:17;8.90;;;6.50;;
61358;SDS011;47228;46.762;23.598;2023-04-07T08:13:45;9.30;;;6.70;;
61358;SDS011;47228;46.762;23.598;2023-04-07T08:16:14;10.10;;;7.70;;
61358;SDS011;47228;46.762;23.598;2023-04-07T08:18:42;9.20;;;6.90;;
61358;SDS011;47228;46.762;23.598;2023-04-07T08:21:10;9.10;;;7.10;;
61358;SDS011;47228;46.762;23.598;2023-04-07T08:23:39;10.50;;;7.50;;
61358;SDS011;47228;46.762;23.598;2023-04-07T08:26:07;10.50;;;7.80;;
61358;SDS011;47228;46.762;23.598;2023-04-07T08:28:35;11.10;;;7.70;;
61358;SDS011;47228;46.762;23.598;2023-04-07T08:31:03;11.80;;;8.00;;
61358;SDS011;47228;46.762;23.598;2023-04-07T08:33:31;10.60;;;7.80;;
61358;SDS011;47228;46.762;23.598;2023-04-07T08:35:59;16.50;;;9.00;;
61358;SDS011;47228;46.762;23.598;2023-04-07T08:38:27;11.20;;;7.80;;
61358;SDS011;47228;46.762;23.598;2023-04-07T08:41:16;11.90;;;8.30;;
61358;SDS011;47228;46.762;23.598;2023-04-07T08:43:47;12.00;;;8.40;;
61358;SDS011;47228;46.762;23.598;2023-04-07T08:46:16;12.40;;;8.90;;
61358;SDS011;47228;46.762;23.598;2023-04-07T08:48:50;11.30;;;7.90;;
61358;SDS011;47228;46.762;23.598;2023-04-07T08:51:29;11.60;;;8.20;;
61358;SDS011;47228;46.762;23.598;2023-04-07T08:54:11;11.00;;;7.90;;
61358;SDS011;47228;46.762;23.598;2023-04-07T08:56:40;10.60;;;7.80;;
61358;SDS011;47228;46.762;23.598;2023-04-07T08:59:13;10.70;;;7.80;;
61358;SDS011;47228;46.762;23.598;2023-04-07T09:01:42;10.80;;;7.70;;
61358;SDS011;47228;46.762;23.598;2023-04-07T09:04:10;9.40;;;6.80;;
61358;SDS011;47228;46.762;23.598;2023-04-07T09:06:39;9.60;;;7.20;;
61358;SDS011;47228;46.762;23.598;2023-04-07T09:09:07;10.20;;;7.10;;
61358;SDS011;47228;46.762;23.598;2023-04-07T09:11:37;11.00;;;6.70;;
61358;SDS011;47228;46.762;23.598;2023-04-07T09:14:06;10.70;;;7.30;;
61358;SDS011;47228;46.762;23.598;2023-04-07T09:16:34;12.00;;;7.90;;
61358;SDS011;47228;46.762;23.598;2023-04-07T09:19:02;11.40;;;8.40;;
61358;SDS011;47228;46.762;23.598;2023-04-07T09:21:49;10.70;;;7.50;;
61358;SDS011;47228;46.762;23.598;2023-04-07T09:24:25;11.60;;;8.10;;
61358;SDS011;47228;46.762;23.598;2023-04-07T09:27:16;11.90;;;8.40;;
61358;SDS011;47228;46.762;23.598;2023-04-07T09:29:45;11.70;;;8.30;;
61358;SDS011;47228;46.762;23.598;2023-04-07T09:32:22;12.90;;;9.30;;
61358;SDS011;47228;46.762;23.598;2023-04-07T09:35:03;13.60;;;9.70;;
61358;SDS011;47228;46.762;23.598;2023-04-07T09:37:31;14.00;;;10.40;;
61358;SDS011;47228;46.762;23.598;2023-04-07T09:40:00;14.30;;;9.50;;
61358;SDS011;47228;46.762;23.598;2023-04-07T09:42:28;13.50;;;9.40;;
61358;SDS011;47228;46.762;23.598;2023-04-07T09:45:01;14.80;;;9.80;;
61358;SDS011;47228;46.762;23.598;2023-04-07T09:47:30;14.00;;;9.10;;
61358;SDS011;47228;46.762;23.598;2023-04-07T09:49:59;13.90;;;9.10;;
61358;SDS011;47228;46.762;23.598;2023-04-07T09:52:49;13.20;;;9.30;;
61358;SDS011;47228;46.762;23.598;2023-04-07T09:55:21;13.50;;;9.70;;
61358;SDS011;47228;46.762;23.598;2023-04-07T09:57:50;12.90;;;9.10;;
61358;SDS011;47228;46.762;23.598;2023-04-07T10:00:19;15.80;;;9.80;;
61358;SDS011;47228;46.762;23.598;2023-04-07T10:02:47;12.90;;;8.90;;
61358;SDS011;47228;46.762;23.598;2023-04-07T10:05:18;16.20;;;10.00;;
61358;SDS011;47228;46.762;23.598;2023-04-07T10:07:48;16.90;;;10.60;;
61358;SDS011;47228;46.762;23.598;2023-04-07T10:10:17;14.80;;;10.20;;
61358;SDS011;47228;46.762;23.598;2023-04-07T10:12:45;14.90;;;10.00;;
61358;SDS011;47228;46.762;23.598;2023-04-07T10:15:16;14.10;;;9.50;;
61358;SDS011;47228;46.762;23.598;2023-04-07T10:17:45;17.90;;;10.30;;
61358;SDS011;47228;46.762;23.598;2023-04-07T10:20:17;14.50;;;9.90;;
61358;SDS011;47228;46.762;23.598;2023-04-07T10:22:48;13.40;;;9.20;;
61358;SDS011;47228;46.762;23.598;2023-04-07T10:25:20;12.00;;;8.10;;
61358;SDS011;47228;46.762;23.598;2023-04-07T10:27:52;13.80;;;9.00;;
61358;SDS011;47228;46.762;23.598;2023-04-07T10:30:23;13.10;;;8.90;;
61358;SDS011;47228;46.762;23.598;2023-04-07T10:32:53;12.30;;;8.20;;
61358;SDS011;47228;46.762;23.598;2023-04-07T10:35:21;14.10;;;9.20;;
61358;SDS011;47228;46.762;23.598;2023-04-07T10:40:34;13.80;;;9.50;;
61358;SDS011;47228;46.762;23.598;2023-04-07T10:43:04;15.20;;;8.90;;
61358;SDS011;47228;46.762;23.598;2023-04-07T10:48:18;11.30;;;8.10;;
61358;SDS011;47228;46.762;23.598;2023-04-07T10:53:34;12.90;;;8.40;;
61358;SDS011;47228;46.762;23.598;2023-04-07T10:56:02;12.80;;;8.40;;
61358;SDS011;47228;46.762;23.598;2023-04-07T10:58:32;12.80;;;8.60;;
61358;SDS011;47228;46.762;23.598;2023-04-07T11:03:35;11.90;;;8.10;;
61358;SDS011;47228;46.762;23.598;2023-04-07T11:08:44;14.10;;;8.90;;
61358;SDS011;47228;46.762;23.598;2023-04-07T11:11:19;14.50;;;8.60;;
61358;SDS011;47228;46.762;23.598;2023-04-07T11:14:02;11.00;;;7.40;;
61358;SDS011;47228;46.762;23.598;2023-04-07T11:16:41;12.20;;;7.60;;
61358;SDS011;47228;46.762;23.598;2023-04-07T11:19:10;15.40;;;8.20;;
61358;SDS011;47228;46.762;23.598;2023-04-07T11:21:38;12.30;;;8.20;;
61358;SDS011;47228;46.762;23.598;2023-04-07T11:24:06;13.40;;;8.30;;
61358;SDS011;47228;46.762;23.598;2023-04-07T11:26:38;12.70;;;8.00;;
61358;SDS011;47228;46.762;23.598;2023-04-07T11:29:07;13.20;;;7.80;;
61358;SDS011;47228;46.762;23.598;2023-04-07T11:31:35;12.60;;;8.10;;
61358;SDS011;47228;46.762;23.598;2023-04-07T11:34:03;11.90;;;8.10;;
61358;SDS011;47228;46.762;23.598;2023-04-07T11:36:33;12.50;;;7.70;;
61358;SDS011;47228;46.762;23.598;2023-04-07T11:39:16;12.00;;;8.00;;
61358;SDS011;47228;46.762;23.598;2023-04-07T11:41:47;13.10;;;8.70;;
61358;SDS011;47228;46.762;23.598;2023-04-07T11:44:16;11.20;;;7.70;;
61358;SDS011;47228;46.762;23.598;2023-04-07T11:46:54;13.30;;;8.30;;
61358;SDS011;47228;46.762;23.598;2023-04-07T11:49:24;13.50;;;8.60;;
61358;SDS011;47228;46.762;23.598;2023-04-07T11:52:04;11.60;;;8.10;;
61358;SDS011;47228;46.762;23.598;2023-04-07T11:54:42;15.00;;;9.00;;
61358;SDS011;47228;46.762;23.598;2023-04-07T11:57:22;13.20;;;8.00;;
61358;SDS011;47228;46.762;23.598;2023-04-07T12:00:07;11.30;;;7.50;;
61358;SDS011;47228;46.762;23.598;2023-04-07T12:02:36;10.10;;;7.10;;
61358;SDS011;47228;46.762;23.598;2023-04-07T12:05:05;11.20;;;7.50;;
61358;SDS011;47228;46.762;23.598;2023-04-07T12:07:33;9.60;;;6.60;;
61358;SDS011;47228;46.762;23.598;2023-04-07T12:10:17;11.50;;;7.30;;
61358;SDS011;47228;46.762;23.598;2023-04-07T12:12:48;10.90;;;7.30;;
61358;SDS011;47228;46.762;23.598;2023-04-07T12:15:16;12.60;;;7.00;;
61358;SDS011;47228;46.762;23.598;2023-04-07T12:17:45;11.00;;;6.90;;
61358;SDS011;47228;46.762;23.598;2023-04-07T12:20:14;9.80;;;6.40;;
61358;SDS011;47228;46.762;23.598;2023-04-07T12:22:43;9.40;;;6.60;;
61358;SDS011;47228;46.762;23.598;2023-04-07T12:25:10;11.50;;;7.30;;
61358;SDS011;47228;46.762;23.598;2023-04-07T12:27:38;9.20;;;6.40;;
61358;SDS011;47228;46.762;23.598;2023-04-07T12:30:10;11.90;;;7.60;;
61358;SDS011;47228;46.762;23.598;2023-04-07T12:32:39;10.20;;;7.40;;
61358;SDS011;47228;46.762;23.598;2023-04-07T12:35:07;11.90;;;7.40;;
61358;SDS011;47228;46.762;23.598;2023-04-07T12:37:35;12.40;;;7.50;;
61358;SDS011;47228;46.762;23.598;2023-04-07T12:40:04;11.40;;;7.80;;
61358;SDS011;47228;46.762;23.598;2023-04-07T12:42:32;12.10;;;7.70;;
61358;SDS011;47228;46.762;23.598;2023-04-07T12:45:00;12.00;;;8.00;;
61358;SDS011;47228;46.762;23.598;2023-04-07T12:47:29;12.80;;;8.60;;
61358;SDS011;47228;46.762;23.598;2023-04-07T12:49:58;13.10;;;8.60;;
61358;SDS011;47228;46.762;23.598;2023-04-07T12:52:26;12.80;;;8.40;;
61358;SDS011;47228;46.762;23.598;2023-04-07T12:54:54;14.00;;;8.50;;
61358;SDS011;47228;46.762;23.598;2023-04-07T12:57:23;13.50;;;9.00;;
61358;SDS011;47228;46.762;23.598;2023-04-07T12:59:51;12.50;;;8.50;;
61358;SDS011;47228;46.762;23.598;2023-04-07T13:02:21;14.30;;;9.20;;
61358;SDS011;47228;46.762;23.598;2023-04-07T13:04:49;14.20;;;8.10;;
61358;SDS011;47228;46.762;23.598;2023-04-07T13:07:17;13.40;;;7.90;;
61358;SDS011;47228;46.762;23.598;2023-04-07T13:09:45;12.50;;;8.70;;
61358;SDS011;47228;46.762;23.598;2023-04-07T13:12:13;13.10;;;8.70;;
61358;SDS011;47228;46.762;23.598;2023-04-07T13:14:41;14.20;;;8.50;;
61358;SDS011;47228;46.762;23.598;2023-04-07T13:17:26;12.80;;;8.70;;
61358;SDS011;47228;46.762;23.598;2023-04-07T13:19:55;13.90;;;9.10;;
61358;SDS011;47228;46.762;23.598;2023-04-07T13:22:23;13.30;;;8.90;;
61358;SDS011;47228;46.762;23.598;2023-04-07T13:24:51;11.80;;;8.00;;
61358;SDS011;47228;46.762;23.598;2023-04-07T13:27:19;12.40;;;8.30;;
61358;SDS011;47228;46.762;23.598;2023-04-07T13:29:47;12.70;;;7.90;;
61358;SDS011;47228;46.762;23.598;2023-04-07T13:32:15;13.30;;;9.00;;
61358;SDS011;47228;46.762;23.598;2023-04-07T13:34:44;13.00;;;8.40;;
61358;SDS011;47228;46.762;23.598;2023-04-07T13:37:12;14.90;;;9.00;;
61358;SDS011;47228;46.762;23.598;2023-04-07T13:39:40;12.70;;;8.40;;
61358;SDS011;47228;46.762;23.598;2023-04-07T13:42:07;13.60;;;8.90;;
61358;SDS011;47228;46.762;23.598;2023-04-07T13:44:39;13.20;;;9.00;;
61358;SDS011;47228;46.762;23.598;2023-04-07T13:47:07;13.90;;;8.80;;
61358;SDS011;47228;46.762;23.598;2023-04-07T13:49:35;12.90;;;8.60;;
61358;SDS011;47228;46.762;23.598;2023-04-07T13:52:03;12.30;;;8.70;;
61358;SDS011;47228;46.762;23.598;2023-04-07T13:54:31;14.70;;;9.10;;
61358;SDS011;47228;46.762;23.598;2023-04-07T13:56:59;15.50;;;8.70;;
61358;SDS011;47228;46.762;23.598;2023-04-07T13:59:27;14.50;;;9.20;;
61358;SDS011;47228;46.762;23.598;2023-04-07T14:01:55;15.70;;;9.50;;
61358;SDS011;47228;46.762;23.598;2023-04-07T14:04:24;16.00;;;9.70;;
61358;SDS011;47228;46.762;23.598;2023-04-07T14:06:52;17.00;;;10.40;;
61358;SDS011;47228;46.762;23.598;2023-04-07T14:09:21;15.60;;;9.10;;
61358;SDS011;47228;46.762;23.598;2023-04-07T14:11:49;15.50;;;9.50;;
61358;SDS011;47228;46.762;23.598;2023-04-07T14:14:17;13.70;;;9.70;;
61358;SDS011;47228;46.762;23.598;2023-04-07T14:16:45;12.90;;;8.70;;
61358;SDS011;47228;46.762;23.598;2023-04-07T14:19:14;15.50;;;10.00;;
61358;SDS011;47228;46.762;23.598;2023-04-07T14:21:42;18.90;;;11.50;;
61358;SDS011;47228;46.762;23.598;2023-04-07T14:24:10;20.50;;;10.80;;
61358;SDS011;47228;46.762;23.598;2023-04-07T14:26:38;18.80;;;11.70;;
61358;SDS011;47228;46.762;23.598;2023-04-07T14:29:06;22.50;;;11.80;;
61358;SDS011;47228;46.762;23.598;2023-04-07T14:31:35;28.00;;;13.00;;
61358;SDS011;47228;46.762;23.598;2023-04-07T14:34:03;21.50;;;11.60;;
61358;SDS011;47228;46.762;23.598;2023-04-07T14:36:31;18.60;;;11.20;;
61358;SDS011;47228;46.762;23.598;2023-04-07T14:39:00;21.40;;;10.30;;
61358;SDS011;47228;46.762;23.598;2023-04-07T14:41:28;16.80;;;10.70;;
61358;SDS011;47228;46.762;23.598;2023-04-07T14:43:56;15.70;;;10.00;;
61358;SDS011;47228;46.762;23.598;2023-04-07T14:46:25;13.60;;;9.50;;
61358;SDS011;47228;46.762;23.598;2023-04-07T14:48:56;14.40;;;9.90;;
61358;SDS011;47228;46.762;23.598;2023-04-07T14:51:25;18.10;;;11.30;;
61358;SDS011;47228;46.762;23.598;2023-04-07T14:53:53;16.00;;;11.00;;